sensor_id;sensor_type;location;lat;lon;timestamp;P1;durP1;ratioP1;P2;durP2;ratioP2
7255;SDS011;3669;49.200;9.242;2022-08-21T00:01:11;2.17;;;2.00;;
7255;SDS011;3669;49.200;9.242;2022-08-21T00:03:41;4.13;;;1.85;;
7255;SDS011;3669;49.200;9.242;2022-08-21T00:06:09;2.42;;;2.05;;
7255;SDS011;3669;49.200;9.242;2022-08-21T00:08:36;1.80;;;1.70;;
7255;SDS011;3669;49.200;9.242;2022-08-21T00:11:03;2.90;;;2.38;;
7255;SDS011;3669;49.200;9.242;2022-08-21T00:13:31;2.53;;;2.30;;
7255;SDS011;3669;49.200;9.242;2022-08-21T00:15:58;1.83;;;1.73;;
7255;SDS011;3669;49.200;9.242;2022-08-21T00:18:25;2.15;;;1.95;;
7255;SDS011;3669;49.200;9.242;2022-08-21T00:20:53;2.30;;;2.10;;
7255;SDS011;3669;49.200;9.242;2022-08-21T00:23:20;2.38;;;2.17;;
7255;SDS011;3669;49.200;9.242;2022-08-21T00:25:47;3.47;;;1.90;;
7255;SDS011;3669;49.200;9.242;2022-08-21T00:28:14;2.30;;;2.10;;
7255;SDS011;3669;49.200;9.242;2022-08-21T00:30:42;2.10;;;1.90;;
7255;SDS011;3669;49.200;9.242;2022-08-21T00:33:10;1.95;;;1.85;;
7255;SDS011;3669;49.200;9.242;2022-08-21T00:35:38;2.97;;;1.83;;
7255;SDS011;3669;49.200;9.242;2022-08-21T00:38:06;2.17;;;1.98;;
7255;SDS011;3669;49.200;9.242;2022-08-21T00:40:41;2.20;;;2.00;;
7255;SDS011;3669;49.200;9.242;2022-08-21T00:43:10;2.15;;;2.05;;
7255;SDS011;3669;49.200;9.242;2022-08-21T00:45:37;2.70;;;2.50;;
7255;SDS011;3669;49.200;9.242;2022-08-21T00:48:04;4.38;;;3.90;;
7255;SDS011;3669;49.200;9.242;2022-08-21T00:50:33;4.93;;;4.40;;
7255;SDS011;3669;49.200;9.242;2022-08-21T00:53:02;4.43;;;4.03;;
7255;SDS011;3669;49.200;9.242;2022-08-21T00:55:30;4.50;;;3.92;;
7255;SDS011;3669;49.200;9.242;2022-08-21T00:57:57;4.20;;;3.80;;
7255;SDS011;3669;49.200;9.242;2022-08-21T01:00:28;4.00;;;3.60;;
7255;SDS011;3669;49.200;9.242;2022-08-21T01:02:56;3.95;;;3.40;;
7255;SDS011;3669;49.200;9.242;2022-08-21T01:05:24;3.80;;;3.42;;
7255;SDS011;3669;49.200;9.242;2022-08-21T01:07:53;3.28;;;3.05;;
7255;SDS011;3669;49.200;9.242;2022-08-21T01:10:23;3.20;;;2.83;;
7255;SDS011;3669;49.200;9.242;2022-08-21T01:12:54;3.22;;;2.92;;
7255;SDS011;3669;49.200;9.242;2022-08-21T01:15:26;2.90;;;2.70;;
7255;SDS011;3669;49.200;9.242;2022-08-21T01:17:54;4.40;;;2.72;;
7255;SDS011;3669;49.200;9.242;2022-08-21T01:20:22;2.90;;;2.70;;
7255;SDS011;3669;49.200;9.242;2022-08-21T01:22:49;2.80;;;2.47;;
7255;SDS011;3669;49.200;9.242;2022-08-21T01:25:16;2.60;;;2.40;;
7255;SDS011;3669;49.200;9.242;2022-08-21T01:27:45;2.60;;;2.38;;
7255;SDS011;3669;49.200;9.242;2022-08-21T01:30:16;2.53;;;2.25;;
7255;SDS011;3669;49.200;9.242;2022-08-21T01:32:43;2.88;;;2.58;;
7255;SDS011;3669;49.200;9.242;2022-08-21T01:35:11;3.45;;;2.45;;
7255;SDS011;3669;49.200;9.242;2022-08-21T01:37:38;5.47;;;5.15;;
7255;SDS011;3669;49.200;9.242;2022-08-21T01:40:06;10.48;;;10.00;;
7255;SDS011;3669;49.200;9.242;2022-08-21T01:42:34;9.10;;;8.68;;
7255;SDS011;3669;49.200;9.242;2022-08-21T01:45:01;10.60;;;10.10;;
7255;SDS011;3669;49.200;9.242;2022-08-21T01:47:28;6.72;;;6.32;;
7255;SDS011;3669;49.200;9.242;2022-08-21T01:49:55;8.85;;;8.25;;
7255;SDS011;3669;49.200;9.242;2022-08-21T01:52:21;7.05;;;6.68;;
7255;SDS011;3669;49.200;9.242;2022-08-21T01:54:48;2.85;;;2.50;;
7255;SDS011;3669;49.200;9.242;2022-08-21T01:57:15;2.70;;;2.50;;
7255;SDS011;3669;49.200;9.242;2022-08-21T01:59:43;2.88;;;2.65;;
7255;SDS011;3669;49.200;9.242;2022-08-21T02:02:10;2.80;;;2.60;;
7255;SDS011;3669;49.200;9.242;2022-08-21T02:04:37;2.90;;;2.60;;
7255;SDS011;3669;49.200;9.242;2022-08-21T02:07:04;2.90;;;2.60;;
7255;SDS011;3669;49.200;9.242;2022-08-21T02:09:32;2.88;;;2.58;;
7255;SDS011;3669;49.200;9.242;2022-08-21T02:11:59;2.42;;;2.22;;
7255;SDS011;3669;49.200;9.242;2022-08-21T02:14:26;3.70;;;2.47;;
7255;SDS011;3669;49.200;9.242;2022-08-21T02:16:53;2.90;;;2.70;;
7255;SDS011;3669;49.200;9.242;2022-08-21T02:19:20;3.25;;;2.78;;
7255;SDS011;3669;49.200;9.242;2022-08-21T02:21:47;2.83;;;2.58;;
7255;SDS011;3669;49.200;9.242;2022-08-21T02:24:15;3.15;;;2.60;;
7255;SDS011;3669;49.200;9.242;2022-08-21T02:26:42;2.70;;;2.40;;
7255;SDS011;3669;49.200;9.242;2022-08-21T02:29:09;2.72;;;2.47;;
7255;SDS011;3669;49.200;9.242;2022-08-21T02:31:36;3.42;;;2.80;;
7255;SDS011;3669;49.200;9.242;2022-08-21T02:34:03;3.15;;;2.65;;
7255;SDS011;3669;49.200;9.242;2022-08-21T02:36:30;2.72;;;2.53;;
7255;SDS011;3669;49.200;9.242;2022-08-21T02:38:58;2.70;;;2.50;;
7255;SDS011;3669;49.200;9.242;2022-08-21T02:41:25;2.97;;;2.30;;
7255;SDS011;3669;49.200;9.242;2022-08-21T02:43:52;2.42;;;2.17;;
7255;SDS011;3669;49.200;9.242;2022-08-21T02:46:19;2.55;;;2.35;;
7255;SDS011;3669;49.200;9.242;2022-08-21T02:48:47;2.63;;;2.40;;
7255;SDS011;3669;49.200;9.242;2022-08-21T02:51:16;2.60;;;2.38;;
7255;SDS011;3669;49.200;9.242;2022-08-21T02:53:44;3.08;;;2.38;;
7255;SDS011;3669;49.200;9.242;2022-08-21T02:56:12;3.00;;;2.40;;
7255;SDS011;3669;49.200;9.242;2022-08-21T02:58:41;2.70;;;2.50;;
7255;SDS011;3669;49.200;9.242;2022-08-21T03:01:09;2.67;;;2.38;;
7255;SDS011;3669;49.200;9.242;2022-08-21T03:03:40;3.78;;;2.38;;
7255;SDS011;3669;49.200;9.242;2022-08-21T03:06:09;3.08;;;2.65;;
7255;SDS011;3669;49.200;9.242;2022-08-21T03:08:36;2.92;;;2.60;;
7255;SDS011;3669;49.200;9.242;2022-08-21T03:11:03;4.15;;;2.60;;
7255;SDS011;3669;49.200;9.242;2022-08-21T03:13:30;3.05;;;2.67;;
7255;SDS011;3669;49.200;9.242;2022-08-21T03:15:58;3.13;;;2.92;;
7255;SDS011;3669;49.200;9.242;2022-08-21T03:18:25;2.88;;;2.63;;
7255;SDS011;3669;49.200;9.242;2022-08-21T03:20:52;2.92;;;2.70;;
7255;SDS011;3669;49.200;9.242;2022-08-21T03:23:19;3.28;;;2.72;;
7255;SDS011;3669;49.200;9.242;2022-08-21T03:25:47;2.95;;;2.42;;
7255;SDS011;3669;49.200;9.242;2022-08-21T03:28:18;3.00;;;2.70;;
7255;SDS011;3669;49.200;9.242;2022-08-21T03:30:47;2.60;;;2.40;;
7255;SDS011;3669;49.200;9.242;2022-08-21T03:33:16;2.70;;;2.50;;
7255;SDS011;3669;49.200;9.242;2022-08-21T03:35:44;3.15;;;2.85;;
7255;SDS011;3669;49.200;9.242;2022-08-21T03:38:13;3.08;;;2.78;;
7255;SDS011;3669;49.200;9.242;2022-08-21T03:40:40;2.80;;;2.47;;
7255;SDS011;3669;49.200;9.242;2022-08-21T03:43:08;3.40;;;3.10;;
7255;SDS011;3669;49.200;9.242;2022-08-21T03:45:35;3.30;;;2.92;;
7255;SDS011;3669;49.200;9.242;2022-08-21T03:48:03;3.03;;;2.60;;
7255;SDS011;3669;49.200;9.242;2022-08-21T03:50:32;3.38;;;2.97;;
7255;SDS011;3669;49.200;9.242;2022-08-21T03:52:59;3.03;;;2.80;;
7255;SDS011;3669;49.200;9.242;2022-08-21T03:55:26;3.28;;;2.83;;
7255;SDS011;3669;49.200;9.242;2022-08-21T03:57:53;2.88;;;2.67;;
7255;SDS011;3669;49.200;9.242;2022-08-21T04:00:21;3.17;;;2.75;;
7255;SDS011;3669;49.200;9.242;2022-08-21T04:02:48;3.10;;;2.80;;
7255;SDS011;3669;49.200;9.242;2022-08-21T04:05:16;3.00;;;2.80;;
7255;SDS011;3669;49.200;9.242;2022-08-21T04:07:56;3.63;;;3.33;;
7255;SDS011;3669;49.200;9.242;2022-08-21T04:10:23;3.63;;;3.17;;
7255;SDS011;3669;49.200;9.242;2022-08-21T04:12:51;3.40;;;2.95;;
7255;SDS011;3669;49.200;9.242;2022-08-21T04:15:18;4.32;;;3.15;;
7255;SDS011;3669;49.200;9.242;2022-08-21T04:17:46;3.45;;;3.13;;
7255;SDS011;3669;49.200;9.242;2022-08-21T04:20:14;5.13;;;3.75;;
7255;SDS011;3669;49.200;9.242;2022-08-21T04:22:41;5.57;;;5.07;;
7255;SDS011;3669;49.200;9.242;2022-08-21T04:25:10;9.77;;;9.18;;
7255;SDS011;3669;49.200;9.242;2022-08-21T04:27:37;13.88;;;13.18;;
7255;SDS011;3669;49.200;9.242;2022-08-21T04:30:07;12.25;;;11.63;;
7255;SDS011;3669;49.200;9.242;2022-08-21T04:32:35;15.98;;;15.10;;
7255;SDS011;3669;49.200;9.242;2022-08-21T04:35:04;8.80;;;8.25;;
7255;SDS011;3669;49.200;9.242;2022-08-21T04:37:31;4.03;;;3.55;;
7255;SDS011;3669;49.200;9.242;2022-08-21T04:39:58;3.85;;;3.42;;
7255;SDS011;3669;49.200;9.242;2022-08-21T04:42:26;3.60;;;3.30;;
7255;SDS011;3669;49.200;9.242;2022-08-21T04:44:54;3.55;;;3.25;;
7255;SDS011;3669;49.200;9.242;2022-08-21T04:47:23;5.45;;;3.08;;
7255;SDS011;3669;49.200;9.242;2022-08-21T04:49:50;3.90;;;3.50;;
7255;SDS011;3669;49.200;9.242;2022-08-21T04:52:19;5.78;;;5.15;;
7255;SDS011;3669;49.200;9.242;2022-08-21T04:54:48;7.30;;;6.22;;
7255;SDS011;3669;49.200;9.242;2022-08-21T04:57:17;6.80;;;5.47;;
7255;SDS011;3669;49.200;9.242;2022-08-21T04:59:46;7.30;;;5.25;;
7255;SDS011;3669;49.200;9.242;2022-08-21T05:02:14;5.40;;;4.55;;
7255;SDS011;3669;49.200;9.242;2022-08-21T05:04:42;4.80;;;4.07;;
7255;SDS011;3669;49.200;9.242;2022-08-21T05:07:13;5.03;;;4.07;;
7255;SDS011;3669;49.200;9.242;2022-08-21T05:09:42;4.22;;;3.83;;
7255;SDS011;3669;49.200;9.242;2022-08-21T05:12:09;4.32;;;3.75;;
7255;SDS011;3669;49.200;9.242;2022-08-21T05:14:37;4.15;;;3.58;;
7255;SDS011;3669;49.200;9.242;2022-08-21T05:17:04;4.05;;;3.65;;
7255;SDS011;3669;49.200;9.242;2022-08-21T05:19:31;4.28;;;3.75;;
7255;SDS011;3669;49.200;9.242;2022-08-21T05:21:58;3.85;;;3.25;;
7255;SDS011;3669;49.200;9.242;2022-08-21T05:24:26;4.00;;;3.08;;
7255;SDS011;3669;49.200;9.242;2022-08-21T05:26:53;3.28;;;2.97;;
7255;SDS011;3669;49.200;9.242;2022-08-21T05:29:20;3.40;;;3.03;;
7255;SDS011;3669;49.200;9.242;2022-08-21T05:31:48;3.33;;;3.03;;
7255;SDS011;3669;49.200;9.242;2022-08-21T05:34:18;3.65;;;3.35;;
7255;SDS011;3669;49.200;9.242;2022-08-21T05:36:46;4.45;;;3.65;;
7255;SDS011;3669;49.200;9.242;2022-08-21T05:39:13;4.28;;;3.88;;
7255;SDS011;3669;49.200;9.242;2022-08-21T05:41:40;3.97;;;3.50;;
7255;SDS011;3669;49.200;9.242;2022-08-21T05:44:07;3.67;;;3.33;;
7255;SDS011;3669;49.200;9.242;2022-08-21T05:46:34;3.75;;;3.40;;
7255;SDS011;3669;49.200;9.242;2022-08-21T05:49:02;5.03;;;3.70;;
7255;SDS011;3669;49.200;9.242;2022-08-21T05:51:29;3.45;;;2.88;;
7255;SDS011;3669;49.200;9.242;2022-08-21T05:53:57;3.72;;;3.33;;
7255;SDS011;3669;49.200;9.242;2022-08-21T05:56:24;3.80;;;3.20;;
7255;SDS011;3669;49.200;9.242;2022-08-21T05:58:51;3.50;;;3.15;;
7255;SDS011;3669;49.200;9.242;2022-08-21T06:01:18;3.35;;;3.05;;
7255;SDS011;3669;49.200;9.242;2022-08-21T06:03:45;3.72;;;3.42;;
7255;SDS011;3669;49.200;9.242;2022-08-21T06:06:12;3.55;;;3.25;;
7255;SDS011;3669;49.200;9.242;2022-08-21T06:08:40;3.42;;;3.13;;
7255;SDS011;3669;49.200;9.242;2022-08-21T06:11:07;3.65;;;3.13;;
7255;SDS011;3669;49.200;9.242;2022-08-21T06:13:34;4.28;;;2.92;;
7255;SDS011;3669;49.200;9.242;2022-08-21T06:18:29;4.28;;;3.05;;
7255;SDS011;3669;49.200;9.242;2022-08-21T06:20:56;3.53;;;3.22;;
7255;SDS011;3669;49.200;9.242;2022-08-21T06:23:23;3.47;;;3.17;;
7255;SDS011;3669;49.200;9.242;2022-08-21T06:25:49;3.50;;;2.85;;
7255;SDS011;3669;49.200;9.242;2022-08-21T06:28:16;12.50;;;11.90;;
7255;SDS011;3669;49.200;9.242;2022-08-21T06:30:43;13.48;;;12.82;;
7255;SDS011;3669;49.200;9.242;2022-08-21T06:33:10;11.45;;;10.82;;
7255;SDS011;3669;49.200;9.242;2022-08-21T06:35:37;6.20;;;5.72;;
7255;SDS011;3669;49.200;9.242;2022-08-21T06:38:04;3.15;;;2.85;;
7255;SDS011;3669;49.200;9.242;2022-08-21T06:40:31;3.38;;;2.88;;
7255;SDS011;3669;49.200;9.242;2022-08-21T06:43:04;3.10;;;2.80;;
7255;SDS011;3669;49.200;9.242;2022-08-21T06:45:32;3.72;;;3.22;;
7255;SDS011;3669;49.200;9.242;2022-08-21T06:47:59;3.55;;;2.97;;
7255;SDS011;3669;49.200;9.242;2022-08-21T06:50:26;3.60;;;3.20;;
7255;SDS011;3669;49.200;9.242;2022-08-21T06:52:58;4.03;;;2.80;;
7255;SDS011;3669;49.200;9.242;2022-08-21T06:55:26;4.07;;;2.88;;
7255;SDS011;3669;49.200;9.242;2022-08-21T06:57:53;3.03;;;2.70;;
7255;SDS011;3669;49.200;9.242;2022-08-21T07:00:20;3.00;;;2.60;;
7255;SDS011;3669;49.200;9.242;2022-08-21T07:02:47;3.25;;;2.92;;
7255;SDS011;3669;49.200;9.242;2022-08-21T07:05:15;3.13;;;2.70;;
7255;SDS011;3669;49.200;9.242;2022-08-21T07:07:42;3.00;;;2.53;;
7255;SDS011;3669;49.200;9.242;2022-08-21T07:10:10;3.47;;;2.95;;
7255;SDS011;3669;49.200;9.242;2022-08-21T07:12:37;3.63;;;2.95;;
7255;SDS011;3669;49.200;9.242;2022-08-21T07:15:04;3.80;;;2.80;;
7255;SDS011;3669;49.200;9.242;2022-08-21T07:17:31;4.78;;;2.88;;
7255;SDS011;3669;49.200;9.242;2022-08-21T07:19:58;3.35;;;2.67;;
7255;SDS011;3669;49.200;9.242;2022-08-21T07:22:25;3.33;;;2.60;;
7255;SDS011;3669;49.200;9.242;2022-08-21T07:24:53;3.00;;;2.58;;
7255;SDS011;3669;49.200;9.242;2022-08-21T07:27:21;4.00;;;2.78;;
7255;SDS011;3669;49.200;9.242;2022-08-21T07:29:48;5.65;;;2.60;;
7255;SDS011;3669;49.200;9.242;2022-08-21T07:32:15;3.15;;;2.80;;
7255;SDS011;3669;49.200;9.242;2022-08-21T07:34:42;3.78;;;2.45;;
7255;SDS011;3669;49.200;9.242;2022-08-21T07:37:10;3.80;;;2.90;;
7255;SDS011;3669;49.200;9.242;2022-08-21T07:39:37;2.80;;;2.50;;
7255;SDS011;3669;49.200;9.242;2022-08-21T07:42:04;4.78;;;2.80;;
7255;SDS011;3669;49.200;9.242;2022-08-21T07:44:31;3.88;;;2.95;;
7255;SDS011;3669;49.200;9.242;2022-08-21T07:47:00;2.88;;;2.53;;
7255;SDS011;3669;49.200;9.242;2022-08-21T07:49:27;2.90;;;2.35;;
7255;SDS011;3669;49.200;9.242;2022-08-21T07:51:54;4.03;;;2.70;;
7255;SDS011;3669;49.200;9.242;2022-08-21T07:54:22;4.47;;;2.80;;
7255;SDS011;3669;49.200;9.242;2022-08-21T07:56:49;3.55;;;3.00;;
7255;SDS011;3669;49.200;9.242;2022-08-21T07:59:16;4.55;;;2.90;;
7255;SDS011;3669;49.200;9.242;2022-08-21T08:01:42;5.45;;;5.05;;
7255;SDS011;3669;49.200;9.242;2022-08-21T08:04:09;5.53;;;5.03;;
7255;SDS011;3669;49.200;9.242;2022-08-21T08:06:36;8.80;;;8.15;;
7255;SDS011;3669;49.200;9.242;2022-08-21T08:09:03;7.10;;;6.55;;
7255;SDS011;3669;49.200;9.242;2022-08-21T08:11:30;6.80;;;6.38;;
7255;SDS011;3669;49.200;9.242;2022-08-21T08:13:58;7.40;;;6.95;;
7255;SDS011;3669;49.200;9.242;2022-08-21T08:16:25;4.60;;;3.00;;
7255;SDS011;3669;49.200;9.242;2022-08-21T08:18:52;5.40;;;5.00;;
7255;SDS011;3669;49.200;9.242;2022-08-21T08:21:21;4.32;;;2.95;;
7255;SDS011;3669;49.200;9.242;2022-08-21T08:23:48;3.63;;;2.90;;
7255;SDS011;3669;49.200;9.242;2022-08-21T08:26:15;5.07;;;4.78;;
7255;SDS011;3669;49.200;9.242;2022-08-21T08:28:42;3.40;;;2.85;;
7255;SDS011;3669;49.200;9.242;2022-08-21T08:31:09;3.55;;;2.58;;
7255;SDS011;3669;49.200;9.242;2022-08-21T08:33:37;4.30;;;2.83;;
7255;SDS011;3669;49.200;9.242;2022-08-21T08:36:04;4.45;;;3.05;;
7255;SDS011;3669;49.200;9.242;2022-08-21T08:38:31;4.45;;;2.90;;
7255;SDS011;3669;49.200;9.242;2022-08-21T08:41:01;4.35;;;2.90;;
7255;SDS011;3669;49.200;9.242;2022-08-21T08:43:30;3.70;;;3.10;;
7255;SDS011;3669;49.200;9.242;2022-08-21T08:45:59;3.42;;;3.00;;
7255;SDS011;3669;49.200;9.242;2022-08-21T08:48:36;5.38;;;3.08;;
7255;SDS011;3669;49.200;9.242;2022-08-21T08:51:06;3.45;;;2.90;;
7255;SDS011;3669;49.200;9.242;2022-08-21T08:53:52;4.43;;;3.33;;
7255;SDS011;3669;49.200;9.242;2022-08-21T08:56:22;4.28;;;3.45;;
7255;SDS011;3669;49.200;9.242;2022-08-21T08:58:49;4.10;;;3.35;;
7255;SDS011;3669;49.200;9.242;2022-08-21T09:01:17;3.72;;;3.38;;
7255;SDS011;3669;49.200;9.242;2022-08-21T09:03:46;4.38;;;3.50;;
7255;SDS011;3669;49.200;9.242;2022-08-21T09:06:34;3.63;;;3.08;;
7255;SDS011;3669;49.200;9.242;2022-08-21T09:09:11;4.10;;;3.33;;
7255;SDS011;3669;49.200;9.242;2022-08-21T09:11:52;3.65;;;3.25;;
7255;SDS011;3669;49.200;9.242;2022-08-21T09:14:28;3.63;;;3.20;;
7255;SDS011;3669;49.200;9.242;2022-08-21T09:24:58;5.40;;;4.85;;
7255;SDS011;3669;49.200;9.242;2022-08-21T09:27:29;4.88;;;3.60;;
7255;SDS011;3669;49.200;9.242;2022-08-21T09:29:57;5.35;;;3.60;;
7255;SDS011;3669;49.200;9.242;2022-08-21T09:32:26;4.15;;;3.38;;
7255;SDS011;3669;49.200;9.242;2022-08-21T09:37:24;3.83;;;3.50;;
7255;SDS011;3669;49.200;9.242;2022-08-21T09:39:52;3.85;;;3.47;;
7255;SDS011;3669;49.200;9.242;2022-08-21T09:42:23;3.95;;;3.60;;
7255;SDS011;3669;49.200;9.242;2022-08-21T09:45:04;4.30;;;3.47;;
7255;SDS011;3669;49.200;9.242;2022-08-21T09:47:32;5.03;;;3.42;;
7255;SDS011;3669;49.200;9.242;2022-08-21T09:50:07;3.63;;;3.25;;
7255;SDS011;3669;49.200;9.242;2022-08-21T09:52:34;5.75;;;3.60;;
7255;SDS011;3669;49.200;9.242;2022-08-21T09:55:02;5.43;;;3.80;;
7255;SDS011;3669;49.200;9.242;2022-08-21T09:57:49;4.90;;;4.50;;
7255;SDS011;3669;49.200;9.242;2022-08-21T10:00:24;5.95;;;5.40;;
7255;SDS011;3669;49.200;9.242;2022-08-21T10:02:52;4.45;;;3.42;;
7255;SDS011;3669;49.200;9.242;2022-08-21T10:05:21;4.75;;;3.40;;
7255;SDS011;3669;49.200;9.242;2022-08-21T10:07:50;4.35;;;3.00;;
7255;SDS011;3669;49.200;9.242;2022-08-21T10:10:18;4.90;;;3.40;;
7255;SDS011;3669;49.200;9.242;2022-08-21T10:18:01;4.82;;;3.45;;
7255;SDS011;3669;49.200;9.242;2022-08-21T10:20:37;5.43;;;3.42;;
7255;SDS011;3669;49.200;9.242;2022-08-21T10:23:14;4.32;;;3.38;;
7255;SDS011;3669;49.200;9.242;2022-08-21T10:25:48;4.18;;;3.38;;
7255;SDS011;3669;49.200;9.242;2022-08-21T10:36:37;3.33;;;2.78;;
7255;SDS011;3669;49.200;9.242;2022-08-21T10:39:09;6.18;;;3.50;;
7255;SDS011;3669;49.200;9.242;2022-08-21T10:44:30;4.45;;;3.20;;
7255;SDS011;3669;49.200;9.242;2022-08-21T10:47:13;4.13;;;3.35;;
7255;SDS011;3669;49.200;9.242;2022-08-21T10:49:48;4.55;;;3.75;;
7255;SDS011;3669;49.200;9.242;2022-08-21T10:54:55;4.18;;;3.10;;
7255;SDS011;3669;49.200;9.242;2022-08-21T11:00:10;4.53;;;3.55;;
7255;SDS011;3669;49.200;9.242;2022-08-21T11:05:29;4.75;;;3.53;;
7255;SDS011;3669;49.200;9.242;2022-08-21T11:07:55;4.72;;;3.30;;
7255;SDS011;3669;49.200;9.242;2022-08-21T11:10:27;5.07;;;3.33;;
7255;SDS011;3669;49.200;9.242;2022-08-21T11:13:06;5.07;;;3.58;;
7255;SDS011;3669;49.200;9.242;2022-08-21T11:20:48;4.55;;;3.55;;
7255;SDS011;3669;49.200;9.242;2022-08-21T11:23:23;4.55;;;3.80;;
7255;SDS011;3669;49.200;9.242;2022-08-21T11:25:58;3.83;;;3.40;;
7255;SDS011;3669;49.200;9.242;2022-08-21T11:28:35;4.55;;;3.58;;
7255;SDS011;3669;49.200;9.242;2022-08-21T11:36:24;4.90;;;4.50;;
7255;SDS011;3669;49.200;9.242;2022-08-21T11:38:57;7.18;;;6.55;;
7255;SDS011;3669;49.200;9.242;2022-08-21T11:41:30;5.47;;;5.00;;
7255;SDS011;3669;49.200;9.242;2022-08-21T11:51:48;3.70;;;3.15;;
7255;SDS011;3669;49.200;9.242;2022-08-21T11:56:51;3.83;;;3.20;;
7255;SDS011;3669;49.200;9.242;2022-08-21T11:59:22;5.07;;;3.75;;
7255;SDS011;3669;49.200;9.242;2022-08-21T12:01:50;3.53;;;3.22;;
7255;SDS011;3669;49.200;9.242;2022-08-21T12:04:26;4.65;;;3.40;;
7255;SDS011;3669;49.200;9.242;2022-08-21T12:06:54;3.60;;;3.20;;
7255;SDS011;3669;49.200;9.242;2022-08-21T12:12:03;4.15;;;3.50;;
7255;SDS011;3669;49.200;9.242;2022-08-21T12:14:47;4.03;;;3.63;;
7255;SDS011;3669;49.200;9.242;2022-08-21T12:17:23;3.85;;;3.00;;
7255;SDS011;3669;49.200;9.242;2022-08-21T12:20:15;5.57;;;3.53;;
7255;SDS011;3669;49.200;9.242;2022-08-21T12:22:47;3.50;;;2.90;;
7255;SDS011;3669;49.200;9.242;2022-08-21T12:25:17;4.13;;;3.17;;
7255;SDS011;3669;49.200;9.242;2022-08-21T12:27:46;4.45;;;3.28;;
7255;SDS011;3669;49.200;9.242;2022-08-21T12:32:57;3.47;;;2.95;;
7255;SDS011;3669;49.200;9.242;2022-08-21T12:35:27;3.78;;;3.38;;
7255;SDS011;3669;49.200;9.242;2022-08-21T12:38:07;3.50;;;3.20;;
7255;SDS011;3669;49.200;9.242;2022-08-21T12:43:40;4.30;;;3.13;;
7255;SDS011;3669;49.200;9.242;2022-08-21T12:46:14;4.43;;;3.55;;
7255;SDS011;3669;49.200;9.242;2022-08-21T12:48:52;3.45;;;3.15;;
7255;SDS011;3669;49.200;9.242;2022-08-21T12:51:30;3.45;;;3.00;;
7255;SDS011;3669;49.200;9.242;2022-08-21T12:53:59;4.47;;;3.28;;
7255;SDS011;3669;49.200;9.242;2022-08-21T12:56:28;4.47;;;3.40;;
7255;SDS011;3669;49.200;9.242;2022-08-21T12:59:06;4.30;;;3.08;;
7255;SDS011;3669;49.200;9.242;2022-08-21T13:01:34;3.95;;;3.08;;
7255;SDS011;3669;49.200;9.242;2022-08-21T13:04:13;3.60;;;3.30;;
7255;SDS011;3669;49.200;9.242;2022-08-21T13:06:50;4.00;;;3.10;;
7255;SDS011;3669;49.200;9.242;2022-08-21T13:09:19;4.00;;;3.42;;
7255;SDS011;3669;49.200;9.242;2022-08-21T13:11:51;4.18;;;3.42;;
7255;SDS011;3669;49.200;9.242;2022-08-21T13:14:27;4.68;;;3.25;;
7255;SDS011;3669;49.200;9.242;2022-08-21T13:16:56;4.15;;;3.03;;
7255;SDS011;3669;49.200;9.242;2022-08-21T13:19:24;3.67;;;3.17;;
7255;SDS011;3669;49.200;9.242;2022-08-21T13:21:51;3.95;;;3.53;;
7255;SDS011;3669;49.200;9.242;2022-08-21T13:24:25;3.55;;;2.95;;
7255;SDS011;3669;49.200;9.242;2022-08-21T13:26:53;4.65;;;3.20;;
7255;SDS011;3669;49.200;9.242;2022-08-21T13:29:22;4.22;;;3.30;;
7255;SDS011;3669;49.200;9.242;2022-08-21T13:31:53;3.65;;;3.08;;
7255;SDS011;3669;49.200;9.242;2022-08-21T13:34:22;3.13;;;2.83;;
7255;SDS011;3669;49.200;9.242;2022-08-21T13:36:51;3.20;;;2.90;;
7255;SDS011;3669;49.200;9.242;2022-08-21T13:39:19;3.60;;;3.00;;
7255;SDS011;3669;49.200;9.242;2022-08-21T13:41:47;4.05;;;3.30;;
7255;SDS011;3669;49.200;9.242;2022-08-21T13:44:23;5.85;;;5.45;;
7255;SDS011;3669;49.200;9.242;2022-08-21T13:46:53;4.38;;;3.65;;
7255;SDS011;3669;49.200;9.242;2022-08-21T13:49:24;4.60;;;4.30;;
7255;SDS011;3669;49.200;9.242;2022-08-21T13:51:53;4.55;;;3.60;;
7255;SDS011;3669;49.200;9.242;2022-08-21T13:54:25;6.65;;;6.15;;
7255;SDS011;3669;49.200;9.242;2022-08-21T13:56:53;5.70;;;5.20;;
7255;SDS011;3669;49.200;9.242;2022-08-21T13:59:26;4.68;;;3.58;;
7255;SDS011;3669;49.200;9.242;2022-08-21T14:02:00;4.60;;;3.10;;
7255;SDS011;3669;49.200;9.242;2022-08-21T14:04:36;3.60;;;3.08;;
7255;SDS011;3669;49.200;9.242;2022-08-21T14:07:14;3.90;;;2.95;;
7255;SDS011;3669;49.200;9.242;2022-08-21T14:09:42;4.03;;;2.70;;
7255;SDS011;3669;49.200;9.242;2022-08-21T14:12:17;3.20;;;2.83;;
7255;SDS011;3669;49.200;9.242;2022-08-21T14:14:46;3.08;;;2.75;;
7255;SDS011;3669;49.200;9.242;2022-08-21T14:17:13;3.85;;;2.80;;
7255;SDS011;3669;49.200;9.242;2022-08-21T14:19:42;3.05;;;2.80;;
7255;SDS011;3669;49.200;9.242;2022-08-21T14:24:59;4.28;;;3.55;;
7255;SDS011;3669;49.200;9.242;2022-08-21T14:27:28;3.55;;;2.92;;
7255;SDS011;3669;49.200;9.242;2022-08-21T14:30:04;4.53;;;2.75;;
7255;SDS011;3669;49.200;9.242;2022-08-21T14:32:37;3.08;;;2.80;;
7255;SDS011;3669;49.200;9.242;2022-08-21T14:35:05;3.47;;;2.78;;
7255;SDS011;3669;49.200;9.242;2022-08-21T14:37:32;4.03;;;2.97;;
7255;SDS011;3669;49.200;9.242;2022-08-21T14:40:00;3.20;;;2.90;;
7255;SDS011;3669;49.200;9.242;2022-08-21T14:42:28;3.08;;;2.72;;
7255;SDS011;3669;49.200;9.242;2022-08-21T14:44:56;2.97;;;2.63;;
7255;SDS011;3669;49.200;9.242;2022-08-21T14:47:24;3.58;;;2.50;;
7255;SDS011;3669;49.200;9.242;2022-08-21T14:49:51;3.53;;;3.00;;
7255;SDS011;3669;49.200;9.242;2022-08-21T14:52:19;3.60;;;2.75;;
7255;SDS011;3669;49.200;9.242;2022-08-21T14:54:48;3.72;;;2.78;;
7255;SDS011;3669;49.200;9.242;2022-08-21T14:57:15;2.72;;;2.40;;
7255;SDS011;3669;49.200;9.242;2022-08-21T14:59:42;3.05;;;2.65;;
7255;SDS011;3669;49.200;9.242;2022-08-21T15:02:11;3.28;;;2.97;;
7255;SDS011;3669;49.200;9.242;2022-08-21T15:04:38;3.95;;;2.88;;
7255;SDS011;3669;49.200;9.242;2022-08-21T15:07:05;3.17;;;2.88;;
7255;SDS011;3669;49.200;9.242;2022-08-21T15:09:32;3.05;;;2.75;;
7255;SDS011;3669;49.200;9.242;2022-08-21T15:12:00;3.15;;;2.65;;
7255;SDS011;3669;49.200;9.242;2022-08-21T15:14:29;3.53;;;2.70;;
7255;SDS011;3669;49.200;9.242;2022-08-21T15:16:57;4.30;;;2.78;;
7255;SDS011;3669;49.200;9.242;2022-08-21T15:19:24;3.70;;;2.80;;
7255;SDS011;3669;49.200;9.242;2022-08-21T15:21:51;4.00;;;2.80;;
7255;SDS011;3669;49.200;9.242;2022-08-21T15:24:19;3.20;;;2.70;;
7255;SDS011;3669;49.200;9.242;2022-08-21T15:26:46;3.95;;;2.72;;
7255;SDS011;3669;49.200;9.242;2022-08-21T15:29:13;3.60;;;2.90;;
7255;SDS011;3669;49.200;9.242;2022-08-21T15:31:58;3.03;;;2.72;;
7255;SDS011;3669;49.200;9.242;2022-08-21T15:34:26;3.55;;;2.95;;
7255;SDS011;3669;49.200;9.242;2022-08-21T15:36:54;3.22;;;2.85;;
7255;SDS011;3669;49.200;9.242;2022-08-21T15:39:21;3.10;;;2.80;;
7255;SDS011;3669;49.200;9.242;2022-08-21T15:41:48;3.97;;;3.03;;
7255;SDS011;3669;49.200;9.242;2022-08-21T15:44:15;3.53;;;2.60;;
7255;SDS011;3669;49.200;9.242;2022-08-21T15:46:42;3.63;;;2.72;;
7255;SDS011;3669;49.200;9.242;2022-08-21T15:49:10;3.10;;;2.90;;
7255;SDS011;3669;49.200;9.242;2022-08-21T15:51:37;3.97;;;2.80;;
7255;SDS011;3669;49.200;9.242;2022-08-21T15:54:05;3.40;;;3.10;;
7255;SDS011;3669;49.200;9.242;2022-08-21T15:56:36;3.17;;;2.65;;
7255;SDS011;3669;49.200;9.242;2022-08-21T15:59:08;3.10;;;2.80;;
7255;SDS011;3669;49.200;9.242;2022-08-21T16:01:35;3.03;;;2.70;;
7255;SDS011;3669;49.200;9.242;2022-08-21T16:04:03;3.30;;;2.78;;
7255;SDS011;3669;49.200;9.242;2022-08-21T16:06:30;3.95;;;2.80;;
7255;SDS011;3669;49.200;9.242;2022-08-21T16:08:58;4.57;;;2.97;;
7255;SDS011;3669;49.200;9.242;2022-08-21T16:11:25;3.20;;;2.90;;
7255;SDS011;3669;49.200;9.242;2022-08-21T16:13:52;3.80;;;2.60;;
7255;SDS011;3669;49.200;9.242;2022-08-21T16:16:20;3.15;;;2.85;;
7255;SDS011;3669;49.200;9.242;2022-08-21T16:18:47;3.63;;;2.95;;
7255;SDS011;3669;49.200;9.242;2022-08-21T16:21:14;2.95;;;2.40;;
7255;SDS011;3669;49.200;9.242;2022-08-21T16:23:42;3.25;;;2.70;;
7255;SDS011;3669;49.200;9.242;2022-08-21T16:26:09;3.42;;;3.13;;
7255;SDS011;3669;49.200;9.242;2022-08-21T16:28:37;4.80;;;3.75;;
7255;SDS011;3669;49.200;9.242;2022-08-21T16:31:05;5.25;;;4.85;;
7255;SDS011;3669;49.200;9.242;2022-08-21T16:33:33;6.45;;;5.88;;
7255;SDS011;3669;49.200;9.242;2022-08-21T16:36:01;4.53;;;4.13;;